Plano's Hourly Summary for Friday, July 6, 2018
Hour Temp
(f)
RH
(%)
Solar Rad.
(MJ/m2)
Rainfall
(in)
Wind
(mph)
7/6/2018 12:00 AM 84 60 0 0 0.5
7/6/2018 1:00 AM 83 64 0 0 0.49
7/6/2018 2:00 AM 82 64 0 0 0.14
7/6/2018 3:00 AM 80 66 0 0 0
7/6/2018 4:00 AM 77 75 0 0 0
7/6/2018 5:00 AM 76 79 0 0 0
7/6/2018 6:00 AM 76 82 0 0 0
7/6/2018 7:00 AM 76 75 0.04 0 0.01
7/6/2018 8:00 AM 79 70 0.23 0 0.06
7/6/2018 9:00 AM 83 61 1.04 0 0.18
7/6/2018 10:00 AM 87 55 1.73 0 1.12
7/6/2018 11:00 AM 90 50 1.98 0 1.55
7/6/2018 12:00 PM 91 45 2.01 0 1.5
7/6/2018 1:00 PM 93 41 2.52 0 1.63
7/6/2018 2:00 PM 95 39 2.14 0 1.01
7/6/2018 3:00 PM 96 34 2.09 0 1.32
7/6/2018 4:00 PM 81 36 0.26 0.23 2.29
7/6/2018 5:00 PM 77 77 0.22 0 0.29
7/6/2018 6:00 PM 81 60 0.64 0 0.65
7/6/2018 7:00 PM 84 54 0.91 0 2.47
7/6/2018 8:00 PM 83 55 0.26 0 0.84
7/6/2018 9:00 PM 81 61 0.02 0 0.05
7/6/2018 10:00 PM 80 67 0 0 0.07
7/6/2018 11:00 PM 80 65 0 0 0.14
Data Summary 83 59 16.09 0.23 0.68